Time;durP1;ratioP1;P1;durP2;ratioP2;P2;SDS_P1;SDS_P2;PMS_P1;PMS_P2;Temp;Humidity;BMP_temperature;BMP_pressure;BME280_temperature;BME280_humidity;BME280_pressure;Samples;Min_cycle;Max_cycle;Signal;HPM_P1;HPM_P2
2022/02/13 00:02:07;;;;;;;12.70;6.63;;;;;;;-2.63;100.00;100820.34;1729154;83;21121;-75
2022/02/13 00:04:35;;;;;;;15.93;7.17;;;;;;;-2.66;100.00;100821.31;1729372;83;21014;-76
2022/02/13 00:07:02;;;;;;;13.97;7.47;;;;;;;-2.68;100.00;100824.03;1729537;83;21062;-75
2022/02/13 00:09:31;;;;;;;14.57;7.17;;;;;;;-2.69;100.00;100824.13;1729854;83;21062;-75
2022/02/13 00:12:08;;;;;;;11.80;5.87;;;;;;;-2.69;100.00;100825.45;1702806;84;21540;-76
2022/02/13 00:14:35;;;;;;;11.87;6.00;;;;;;;-2.69;100.00;100822.33;1702912;84;21552;-75
2022/02/13 00:17:03;;;;;;;14.47;5.83;;;;;;;-2.70;100.00;100820.59;1702483;84;21066;-75
2022/02/13 00:19:30;;;;;;;11.20;5.40;;;;;;;-2.69;100.00;100822.80;1732990;81;21014;-75
2022/02/13 00:21:57;;;;;;;10.13;5.57;;;;;;;-2.70;100.00;100828.53;1732718;83;21104;-75
2022/02/13 00:24:24;;;;;;;12.00;5.23;;;;;;;-2.70;100.00;100830.33;1732990;83;21042;-75
2022/02/13 00:26:50;;;;;;;14.47;5.87;;;;;;;-2.71;100.00;100829.92;1733003;83;21512;-75
2022/02/13 00:29:17;;;;;;;13.60;5.60;;;;;;;-2.72;100.00;100834.36;1732647;83;21516;-74
2022/02/13 00:31:46;;;;;;;11.90;5.30;;;;;;;-2.71;100.00;100833.89;1732778;83;21559;-76
2022/02/13 00:34:13;;;;;;;11.33;5.47;;;;;;;-2.69;100.00;100829.41;1733235;83;21061;-75
2022/02/13 00:36:40;;;;;;;11.40;5.50;;;;;;;-2.70;100.00;100828.53;1732665;83;21054;-75
2022/02/13 00:39:06;;;;;;;11.73;5.30;;;;;;;-2.74;100.00;100824.31;1733166;83;21069;-75
2022/02/13 00:41:34;;;;;;;14.07;6.10;;;;;;;-2.75;100.00;100827.88;1732812;83;21058;-75
2022/02/13 00:44:02;;;;;;;12.47;5.87;;;;;;;-2.79;100.00;100828.94;1733175;83;21034;-76
2022/02/13 00:46:29;;;;;;;11.13;5.17;;;;;;;-2.80;100.00;100828.53;1732737;83;21054;-75
2022/02/13 00:48:55;;;;;;;12.33;5.67;;;;;;;-2.81;100.00;100833.45;1733133;83;21031;-75
2022/02/13 00:51:22;;;;;;;12.40;6.20;;;;;;;-2.81;100.00;100824.66;1732898;83;21049;-75
2022/02/13 00:53:55;;;;;;;14.53;5.80;;;;;;;-2.80;100.00;100827.20;1733090;83;20990;-76
2022/02/13 00:56:22;;;;;;;13.73;5.87;;;;;;;-2.80;100.00;100829.00;1733462;83;21010;-75
2022/02/13 00:58:49;;;;;;;16.77;5.90;;;;;;;-2.81;100.00;100831.27;1733628;83;20994;-75
2022/02/13 01:01:16;;;;;;;11.67;5.63;;;;;;;-2.81;100.00;100841.39;1733884;83;20994;-76
2022/02/13 01:03:43;;;;;;;14.37;5.77;;;;;;;-2.81;100.00;100841.86;1734294;83;21097;-75
2022/02/13 01:06:10;;;;;;;13.13;5.43;;;;;;;-2.82;100.00;100849.39;1734573;83;21548;-75
2022/02/13 01:08:37;;;;;;;11.23;5.33;;;;;;;-2.85;100.00;100849.08;1701164;83;20986;-75
2022/02/13 01:11:04;;;;;;;13.50;6.00;;;;;;;-2.89;100.00;100850.11;1754721;81;21016;-74
2022/02/13 01:13:32;;;;;;;12.43;6.20;;;;;;;-2.94;100.00;100850.77;1761371;81;21043;-75
2022/02/13 01:16:00;;;;;;;15.13;7.33;;;;;;;-2.97;100.00;100861.50;1761245;81;21043;-75
2022/02/13 01:18:26;;;;;;;16.47;6.90;;;;;;;-2.97;100.00;100854.89;1761046;81;21060;-75
2022/02/13 01:20:53;;;;;;;13.10;6.50;;;;;;;-2.96;100.00;100858.77;1761245;81;21111;-76
2022/02/13 01:23:20;;;;;;;11.33;6.20;;;;;;;-2.97;100.00;100863.67;1761493;81;21015;-75
2022/02/13 01:25:46;;;;;;;15.20;6.87;;;;;;;-2.96;100.00;100865.38;1761507;81;21482;-75
2022/02/13 01:28:13;;;;;;;15.50;6.60;;;;;;;-2.96;100.00;100861.88;1761342;81;21115;-76
2022/02/13 01:30:40;;;;;;;11.57;6.07;;;;;;;-2.97;100.00;100860.18;1761459;81;20995;-76
2022/02/13 01:33:07;;;;;;;13.73;6.20;;;;;;;-2.98;100.00;100868.56;1761464;81;21101;-74
2022/02/13 01:35:34;;;;;;;12.20;6.03;;;;;;;-3.01;100.00;100870.47;1761093;81;21055;-76
2022/02/13 01:38:01;;;;;;;13.17;6.20;;;;;;;-3.04;100.00;100873.27;1761304;81;21064;-75
2022/02/13 01:40:30;;;;;;;17.47;6.70;;;;;;;-3.09;100.00;100872.98;1761168;81;21031;-75
2022/02/13 01:42:57;;;;;;;14.87;6.53;;;;;;;-3.10;100.00;100877.00;1761596;81;21012;-75
2022/02/13 01:45:23;;;;;;;14.23;6.77;;;;;;;-3.11;100.00;100881.91;1761261;81;21061;-76
2022/02/13 01:47:50;;;;;;;13.87;6.07;;;;;;;-3.13;100.00;100878.01;1761122;81;21091;-75
2022/02/13 01:50:18;;;;;;;12.47;5.87;;;;;;;-3.14;100.00;100882.89;1761535;81;21063;-75
2022/02/13 01:52:45;;;;;;;13.43;5.87;;;;;;;-3.16;100.00;100883.89;1761234;81;21070;-76
2022/02/13 01:55:11;;;;;;;13.07;6.10;;;;;;;-3.19;100.00;100883.53;1732163;81;20964;-75
2022/02/13 01:57:38;;;;;;;14.60;6.33;;;;;;;-3.20;100.00;100878.33;1761596;81;21016;-76
2022/02/13 02:00:08;;;;;;;13.70;6.37;;;;;;;-3.22;100.00;100881.48;1761488;81;21031;-76
2022/02/13 02:02:43;;;;;;;15.83;6.27;;;;;;;-3.23;100.00;100879.77;1761215;81;21110;-75
2022/02/13 02:05:10;;;;;;;12.63;5.83;;;;;;;-3.26;100.00;100880.73;1761628;81;20992;-75
2022/02/13 02:07:37;;;;;;;10.53;5.50;;;;;;;-3.28;100.00;100880.80;1760747;81;21087;-75
2022/02/13 02:10:06;;;;;;;10.60;6.10;;;;;;;-3.27;100.00;100880.36;1740221;81;21035;-75
2022/02/13 02:12:35;;;;;;;17.97;8.30;;;;;;;-3.25;100.00;100879.83;1701740;84;21071;-76
2022/02/13 02:15:04;;;;;;;17.40;7.10;;;;;;;-3.22;100.00;100885.44;1701966;84;21032;-75
2022/02/13 02:17:31;;;;;;;12.47;6.80;;;;;;;-3.25;100.00;100882.48;1701710;84;21044;-75
2022/02/13 02:19:58;;;;;;;14.90;7.00;;;;;;;-3.25;100.00;100880.68;1730753;82;21010;-76
2022/02/13 02:22:25;;;;;;;15.97;7.50;;;;;;;-3.27;100.00;100883.00;1732965;83;21030;-76
2022/02/13 02:24:52;;;;;;;13.43;6.93;;;;;;;-3.28;100.00;100882.59;1732846;83;21058;-75
2022/02/13 02:27:18;;;;;;;15.10;8.77;;;;;;;-3.31;100.00;100878.73;1733003;83;21014;-75
2022/02/13 02:29:45;;;;;;;16.07;8.40;;;;;;;-3.32;100.00;100877.89;1733132;83;21002;-75
2022/02/13 02:32:12;;;;;;;19.53;9.77;;;;;;;-3.33;100.00;100894.70;1733153;83;21006;-75
2022/02/13 02:34:40;;;;;;;15.83;8.60;;;;;;;-3.34;100.00;100885.03;1732727;83;21050;-75
2022/02/13 02:37:08;;;;;;;17.73;8.33;;;;;;;-3.35;100.00;100893.87;1733017;83;21052;-75
2022/02/13 02:39:35;;;;;;;18.53;7.20;;;;;;;-3.37;100.00;100879.85;1733013;83;21097;-76
2022/02/13 02:42:02;;;;;;;19.60;8.93;;;;;;;-3.39;100.00;100891.43;1732906;83;21484;-76
2022/02/13 02:44:29;;;;;;;14.57;7.50;;;;;;;-3.43;100.00;100886.72;1733232;83;21496;-76
2022/02/13 02:46:55;;;;;;;17.97;8.33;;;;;;;-3.48;100.00;100899.27;1733078;83;21034;-75
2022/02/13 02:49:22;;;;;;;17.80;8.07;;;;;;;-3.55;100.00;100890.70;1733151;83;21065;-76
2022/02/13 02:51:49;;;;;;;25.57;15.87;;;;;;;-3.56;100.00;100900.02;1733054;83;21057;-75
2022/02/13 02:54:15;;;;;;;23.87;12.70;;;;;;;-3.57;100.00;100896.98;1733245;83;21010;-74
2022/02/13 02:56:43;;;;;;;19.20;10.30;;;;;;;-3.55;100.00;100905.72;1732926;83;21093;-76
2022/02/13 02:59:10;;;;;;;19.33;11.17;;;;;;;-3.55;100.00;100907.89;1733000;83;21535;-76
2022/02/13 03:01:37;;;;;;;15.87;9.43;;;;;;;-3.57;100.00;100903.12;1733090;83;21069;-76
2022/02/13 03:04:04;;;;;;;17.20;10.87;;;;;;;-3.59;100.00;100906.73;1732902;82;21481;-75
2022/02/13 03:06:31;;;;;;;15.80;9.83;;;;;;;-3.64;100.00;100904.28;1732845;83;21085;-75
2022/02/13 03:08:58;;;;;;;18.07;11.93;;;;;;;-3.69;100.00;100908.42;1733005;83;21022;-75
2022/02/13 03:11:25;;;;;;;18.83;12.93;;;;;;;-3.71;100.00;100908.94;1758691;81;21003;-76
2022/02/13 03:13:52;;;;;;;18.37;10.67;;;;;;;-3.71;100.00;100916.02;1761230;81;21600;-75
2022/02/13 03:16:19;;;;;;;19.53;11.13;;;;;;;-3.72;100.00;100920.45;1761499;81;21022;-75
2022/02/13 03:18:46;;;;;;;28.03;21.20;;;;;;;-3.74;100.00;100920.95;1761257;81;21044;-75
2022/02/13 03:21:14;;;;;;;23.67;14.50;;;;;;;-3.75;100.00;100915.27;1761548;81;21043;-75
2022/02/13 03:23:42;;;;;;;28.57;19.50;;;;;;;-3.75;100.00;100912.63;1761463;81;21035;-76
2022/02/13 03:26:09;;;;;;;25.40;16.90;;;;;;;-3.76;100.00;100917.97;1761401;81;20991;-76
2022/02/13 03:28:38;;;;;;;23.00;13.77;;;;;;;-3.75;100.00;100917.03;1761155;81;21075;-76
2022/02/13 03:31:05;;;;;;;22.80;10.37;;;;;;;-3.73;100.00;100920.03;1761443;81;21043;-77
2022/02/13 03:33:32;;;;;;;18.57;10.13;;;;;;;-3.70;100.00;100922.58;1761536;81;21004;-76
2022/02/13 03:35:59;;;;;;;18.27;9.83;;;;;;;-3.68;100.00;100916.77;1761354;81;20968;-75
2022/02/13 03:38:26;;;;;;;19.33;10.47;;;;;;;-3.66;100.00;100920.67;1761440;81;21442;-75
2022/02/13 03:40:52;;;;;;;22.17;10.60;;;;;;;-3.68;100.00;100911.47;1761312;81;21039;-75
2022/02/13 03:43:20;;;;;;;20.63;9.90;;;;;;;-3.71;100.00;100912.91;1761371;81;20980;-75
2022/02/13 03:45:47;;;;;;;19.57;10.33;;;;;;;-3.76;100.00;100916.65;1761294;81;21019;-76
2022/02/13 03:48:14;;;;;;;22.27;10.13;;;;;;;-3.79;100.00;100923.37;1761060;81;21063;-75
2022/02/13 03:50:41;;;;;;;20.87;10.90;;;;;;;-3.84;100.00;100917.80;1761317;81;20992;-75
2022/02/13 03:53:08;;;;;;;17.63;9.50;;;;;;;-3.86;100.00;100917.00;1761407;81;21023;-76
2022/02/13 03:55:35;;;;;;;19.27;12.90;;;;;;;-3.88;100.00;100920.17;1761283;81;21505;-76
2022/02/13 03:58:01;;;;;;;23.37;15.07;;;;;;;-3.87;100.00;100914.42;1761191;81;21683;-76
2022/02/13 04:00:28;;;;;;;19.17;12.80;;;;;;;-3.85;100.00;100928.42;1761260;81;20965;-75
2022/02/13 04:02:55;;;;;;;18.23;10.60;;;;;;;-3.84;100.00;100916.95;1761410;81;21016;-75
2022/02/13 04:05:24;;;;;;;14.53;7.67;;;;;;;-3.86;100.00;100922.29;1761372;81;21518;-76
2022/02/13 04:07:51;;;;;;;14.53;7.10;;;;;;;-3.88;100.00;100912.68;1761070;81;21036;-75
2022/02/13 04:10:18;;;;;;;15.40;7.57;;;;;;;-3.90;100.00;100919.81;1728870;82;20981;-75
2022/02/13 04:12:45;;;;;;;13.57;7.57;;;;;;;-3.93;100.00;100922.12;1755767;81;21095;-75
2022/02/13 04:15:12;;;;;;;14.53;8.27;;;;;;;-3.94;100.00;100932.73;1755878;82;21048;-75
2022/02/13 04:17:40;;;;;;;15.10;8.20;;;;;;;-3.95;100.00;100936.29;1755528;82;21045;-75
2022/02/13 04:20:10;;;;;;;17.47;8.70;;;;;;;-3.98;100.00;100939.92;1703974;84;21089;-76
2022/02/13 04:22:37;;;;;;;16.83;8.60;;;;;;;-3.98;100.00;100942.56;1703745;84;21075;-74
2022/02/13 04:25:04;;;;;;;15.67;9.07;;;;;;;-4.01;100.00;100940.88;1703624;84;21097;-75
2022/02/13 04:27:31;;;;;;;18.63;9.80;;;;;;;-4.02;100.00;100945.77;1703900;84;21113;-75
2022/02/13 04:29:58;;;;;;;18.33;9.50;;;;;;;-4.03;100.00;100942.72;1703850;84;21048;-75
2022/02/13 04:32:25;;;;;;;20.30;9.77;;;;;;;-4.01;100.00;100954.55;1703448;84;21519;-75
2022/02/13 04:34:58;;;;;;;18.83;9.60;;;;;;;-4.02;100.00;100952.81;1703842;84;21057;-76
2022/02/13 04:37:25;;;;;;;22.13;10.00;;;;;;;-4.05;100.00;100958.23;1703752;84;21026;-75
2022/02/13 04:39:52;;;;;;;22.23;10.90;;;;;;;-4.11;100.00;100958.44;1703831;84;21054;-75
2022/02/13 04:42:18;;;;;;;22.37;11.20;;;;;;;-4.13;100.00;100954.53;1703734;84;21026;-75
2022/02/13 04:44:46;;;;;;;21.73;10.60;;;;;;;-4.10;100.00;100960.17;1703917;84;21050;-75
2022/02/13 04:47:12;;;;;;;24.73;12.67;;;;;;;-4.12;100.00;100957.59;1703655;84;21508;-74
2022/02/13 04:49:39;;;;;;;25.07;12.10;;;;;;;-4.18;100.00;100967.50;1703802;84;21018;-74
2022/02/13 04:52:06;;;;;;;21.97;13.27;;;;;;;-4.26;100.00;100968.63;1703746;84;21530;-75
2022/02/13 04:54:33;;;;;;;24.93;12.73;;;;;;;-4.32;100.00;100975.91;1703891;84;21085;-73
2022/02/13 04:57:01;;;;;;;23.87;12.10;;;;;;;-4.34;100.00;100983.02;1703765;84;21065;-75
2022/02/13 04:59:33;;;;;;;22.10;11.20;;;;;;;-4.36;100.00;100987.03;1704394;84;21115;-74
2022/02/13 05:01:58;;;;;;;27.80;14.37;;;;;;;-4.35;100.00;100989.23;1704271;84;21524;-75
2022/02/13 05:04:24;;;;;;;34.67;17.77;;;;;;;-4.34;100.00;100995.75;1704605;84;21029;-75
2022/02/13 05:06:51;;;;;;;26.33;14.33;;;;;;;-4.32;100.00;100995.70;1705520;84;21050;-74
2022/02/13 05:09:19;;;;;;;23.80;13.07;;;;;;;-4.30;100.00;101002.68;1705290;84;21038;-75
2022/02/13 05:11:48;;;;;;;23.33;13.03;;;;;;;-4.31;100.00;100991.70;1703733;84;21492;-74
2022/02/13 05:14:15;;;;;;;26.33;14.20;;;;;;;-4.31;100.00;101001.41;1703867;84;21034;-74
2022/02/13 05:16:42;;;;;;;27.03;14.27;;;;;;;-4.32;100.00;100999.67;1703949;84;21053;-75
2022/02/13 05:19:09;;;;;;;50.03;24.17;;;;;;;-4.31;100.00;101000.94;1721271;82;20958;-75
2022/02/13 05:21:35;;;;;;;81.53;37.30;;;;;;;-4.27;100.00;101006.98;1732928;83;20998;-74
2022/02/13 05:24:03;;;;;;;52.70;24.80;;;;;;;-4.18;100.00;101009.29;1732753;83;21058;-75
2022/02/13 05:26:30;;;;;;;46.57;22.03;;;;;;;-4.09;100.00;101006.79;1732749;83;21061;-75
2022/02/13 05:28:57;;;;;;;39.97;20.17;;;;;;;-4.01;100.00;101003.43;1732182;83;20994;-75
2022/02/13 05:31:29;;;;;;;37.47;18.83;;;;;;;-3.94;100.00;101002.30;1731919;83;21045;-74
2022/02/13 05:33:53;;;;;;;36.07;18.23;;;;;;;-3.88;100.00;100995.48;1726853;83;21101;-72
2022/02/13 05:36:20;;;;;;;36.90;17.80;;;;;;;-3.82;100.00;100997.89;1731805;83;20998;-74
2022/02/13 05:38:47;;;;;;;36.83;18.43;;;;;;;-3.74;100.00;101005.52;1731784;83;21045;-75
2022/02/13 05:41:14;;;;;;;34.70;18.23;;;;;;;-3.70;100.00;101000.55;1731816;83;21082;-75
2022/02/13 05:43:41;;;;;;;34.83;19.63;;;;;;;-3.63;100.00;100998.52;1732344;83;21062;-73
2022/02/13 05:46:08;;;;;;;37.73;20.23;;;;;;;-3.51;100.00;100989.27;1732654;83;21054;-75
2022/02/13 05:48:34;;;;;;;46.70;22.00;;;;;;;-3.34;100.00;100984.68;1732929;83;21013;-74
2022/02/13 05:51:01;;;;;;;45.93;23.53;;;;;;;-3.15;100.00;100982.16;1700295;83;21006;-74
2022/02/13 05:53:28;;;;;;;51.83;25.47;;;;;;;-3.02;100.00;100981.23;1733021;83;21006;-73
2022/02/13 05:55:55;;;;;;;59.77;30.03;;;;;;;-2.95;100.00;100969.48;1732993;83;21026;-74
2022/02/13 05:58:22;;;;;;;59.03;30.03;;;;;;;-2.88;100.00;100976.23;1732961;83;21045;-74
2022/02/13 06:00:49;;;;;;;66.50;33.80;;;;;;;-2.82;100.00;100965.86;1700461;83;21070;-75
2022/02/13 06:03:15;;;;;;;64.80;32.73;;;;;;;-2.75;100.00;100963.36;1732976;83;20998;-75
2022/02/13 06:05:43;;;;;;;60.53;30.67;;;;;;;-2.70;100.00;100964.88;1732527;83;21737;-75
2022/02/13 06:08:10;;;;;;;56.93;32.27;;;;;;;-2.64;100.00;100969.53;1733109;83;21057;-74
2022/02/13 06:10:37;;;;;;;68.60;35.80;;;;;;;-2.60;100.00;100968.02;1732796;83;21003;-75
2022/02/13 06:13:04;;;;;;;66.17;36.20;;;;;;;-2.53;100.00;100959.37;1700424;83;21006;-75
2022/02/13 06:15:34;;;;;;;73.80;39.47;;;;;;;-2.46;100.00;100961.27;1732513;83;21655;-74
2022/02/13 06:18:01;;;;;;;78.50;40.00;;;;;;;-2.43;100.00;100954.05;1733106;82;21010;-76
2022/02/13 06:20:28;;;;;;;75.57;38.37;;;;;;;-2.38;100.00;100956.05;1733134;83;21010;-75
2022/02/13 06:22:56;;;;;;;79.90;38.63;;;;;;;-2.36;100.00;100956.83;1732992;83;21026;-74
2022/02/13 06:25:23;;;;;;;77.03;39.20;;;;;;;-2.29;100.00;100955.64;1700437;83;21096;-74
2022/02/13 06:27:50;;;;;;;78.10;40.37;;;;;;;-2.21;100.00;100957.09;1700084;83;21061;-75
2022/02/13 06:30:17;;;;;;;80.07;40.77;;;;;;;-2.12;100.00;100947.44;1733082;83;21033;-75
2022/02/13 06:32:44;;;;;;;76.63;39.93;;;;;;;-2.03;100.00;100952.80;1733124;83;21018;-74
2022/02/13 06:35:10;;;;;;;77.70;39.70;;;;;;;-1.99;100.00;100945.09;1732976;82;21022;-75
2022/02/13 06:37:38;;;;;;;69.90;38.50;;;;;;;-1.95;100.00;100952.86;1733059;83;21026;-75
2022/02/13 06:40:06;;;;;;;67.47;37.37;;;;;;;-1.89;100.00;100949.06;1732771;83;21054;-75
2022/02/13 06:42:33;;;;;;;70.37;37.83;;;;;;;-1.83;100.00;100943.47;1733160;83;21064;-73
2022/02/13 06:45:00;;;;;;;76.37;39.97;;;;;;;-1.79;100.00;100949.05;1733207;83;20994;-73
2022/02/13 06:47:26;;;;;;;65.80;35.60;;;;;;;-1.70;100.00;100944.23;1733111;83;21479;-75
2022/02/13 06:49:53;;;;;;;73.40;38.67;;;;;;;-1.65;100.00;100931.16;1733074;83;21496;-74
2022/02/13 06:52:20;;;;;;;70.60;36.73;;;;;;;-1.58;100.00;100935.23;1733008;83;21006;-74
2022/02/13 06:54:48;;;;;;;67.43;36.80;;;;;;;-1.50;100.00;100930.92;1733007;83;21037;-74
2022/02/13 06:57:15;;;;;;;72.97;38.23;;;;;;;-1.42;100.00;100934.05;1732948;83;21081;-73
2022/02/13 06:59:42;;;;;;;70.23;34.90;;;;;;;-1.32;100.00;100925.20;1733057;83;21066;-75
2022/02/13 07:02:12;;;;;;;64.20;34.83;;;;;;;-1.26;100.00;100924.89;1733180;83;21014;-75
2022/02/13 07:04:40;;;;;;;55.77;30.97;;;;;;;-1.19;100.00;100924.14;1732961;83;21050;-75
2022/02/13 07:07:11;;;;;;;56.20;30.53;;;;;;;-1.12;100.00;100917.59;1732903;83;21101;-75
2022/02/13 07:09:39;;;;;;;59.30;32.27;;;;;;;-1.01;100.00;100911.31;1737621;81;20992;-74
2022/02/13 07:12:09;;;;;;;53.60;30.43;;;;;;;-0.88;100.00;100906.25;1760963;81;21012;-74
2022/02/13 07:14:37;;;;;;;60.13;33.10;;;;;;;-0.75;100.00;100903.83;1760837;81;21040;-73
2022/02/13 07:17:04;;;;;;;53.27;29.93;;;;;;;-0.61;100.00;100904.46;1761119;81;21056;-73
2022/02/13 07:19:31;;;;;;;57.47;31.50;;;;;;;-0.48;100.00;100904.24;1740087;81;20998;-73
2022/02/13 07:21:58;;;;;;;63.70;39.50;;;;;;;-0.39;100.00;100892.24;1732554;83;21030;-74
2022/02/13 07:24:25;;;;;;;76.40;47.67;;;;;;;-0.33;100.00;100897.73;1732841;83;21006;-74
2022/02/13 07:26:52;;;;;;;54.90;30.67;;;;;;;-0.23;100.00;100901.60;1732660;83;21053;-74
2022/02/13 07:29:20;;;;;;;52.87;27.43;;;;;;;-0.13;100.00;100898.00;1732656;83;21018;-74
2022/02/13 07:31:48;;;;;;;53.70;28.63;;;;;;;-0.06;100.00;100896.25;1732597;83;21503;-74
2022/02/13 07:34:14;;;;;;;50.33;28.53;;;;;;;0.05;100.00;100897.00;1732907;83;21018;-74
2022/02/13 07:36:42;;;;;;;49.90;27.90;;;;;;;0.15;100.00;100896.05;1732749;83;20992;-74
2022/02/13 07:39:08;;;;;;;55.40;30.13;;;;;;;0.17;100.00;100899.48;1732867;83;21022;-73
2022/02/13 07:41:35;;;;;;;59.83;31.43;;;;;;;0.30;100.00;100894.34;1732914;83;21062;-74
2022/02/13 07:44:05;;;;;;;53.67;29.57;;;;;;;0.44;100.00;100902.91;1732911;83;21113;-73
2022/02/13 07:46:32;;;;;;;59.03;31.33;;;;;;;0.57;100.00;100905.28;1732517;83;21054;-74
2022/02/13 07:49:00;;;;;;;56.80;29.30;;;;;;;0.63;100.00;100908.06;1732769;83;21532;-74
2022/02/13 07:51:28;;;;;;;54.17;29.07;;;;;;;0.72;100.00;100902.22;1732778;83;21085;-73
2022/02/13 07:53:55;;;;;;;49.87;27.07;;;;;;;0.82;100.00;100900.76;1732849;83;21034;-73
2022/02/13 07:56:22;;;;;;;55.27;28.20;;;;;;;0.93;100.00;100910.31;1732517;83;21042;-73
2022/02/13 07:58:50;;;;;;;51.23;26.77;;;;;;;1.06;100.00;100913.16;1699794;83;21125;-72
2022/02/13 08:01:19;;;;;;;44.20;23.63;;;;;;;1.13;100.00;100919.84;1732600;83;21013;-73
2022/02/13 08:03:47;;;;;;;43.53;24.40;;;;;;;1.19;100.00;100931.05;1723846;83;21002;-72
2022/02/13 08:06:15;;;;;;;41.60;23.00;;;;;;;1.29;100.00;100925.13;1732714;83;21308;-74
2022/02/13 08:08:43;;;;;;;44.27;23.87;;;;;;;1.44;100.00;100918.51;1732524;83;21065;-74
2022/02/13 08:11:10;;;;;;;46.60;22.00;;;;;;;1.63;100.00;100918.25;1732808;83;21006;-73
2022/02/13 08:13:38;;;;;;;36.33;18.77;;;;;;;1.85;100.00;100908.00;1732586;83;21038;-73
2022/02/13 08:16:06;;;;;;;40.90;19.87;;;;;;;2.03;100.00;100910.02;1732710;83;21031;-75
2022/02/13 08:18:33;;;;;;;33.43;17.90;;;;;;;2.24;100.00;100910.48;1732660;81;21050;-73
2022/02/13 08:21:03;;;;;;;35.00;17.77;;;;;;;2.33;100.00;100909.55;1732878;83;21021;-73
2022/02/13 08:23:28;;;;;;;32.07;15.57;;;;;;;2.37;100.00;100915.91;1732617;83;21484;-73
2022/02/13 08:25:55;;;;;;;33.07;15.63;;;;;;;2.43;100.00;100911.53;1732679;83;21026;-73
2022/02/13 08:28:23;;;;;;;33.03;16.23;;;;;;;2.51;100.00;100900.35;1732632;83;21034;-73
2022/02/13 08:30:49;;;;;;;32.57;16.20;;;;;;;2.59;100.00;100897.21;1732744;83;21010;-73
2022/02/13 08:33:16;;;;;;;32.03;15.37;;;;;;;2.60;100.00;100898.45;1732641;83;21010;-73
2022/02/13 08:35:45;;;;;;;26.57;12.97;;;;;;;2.80;100.00;100897.64;1732475;83;21551;-73
2022/02/13 08:38:12;;;;;;;24.77;11.20;;;;;;;3.08;100.00;100896.68;1732633;83;21069;-74
2022/02/13 08:40:40;;;;;;;23.87;11.00;;;;;;;3.10;100.00;100897.42;1732667;83;21473;-74
2022/02/13 08:43:06;;;;;;;20.43;9.63;;;;;;;3.16;100.00;100893.00;1732979;83;21046;-75
2022/02/13 08:45:34;;;;;;;17.10;7.57;;;;;;;3.18;100.00;100887.06;1732747;83;21013;-74
2022/02/13 08:48:00;;;;;;;17.87;7.47;;;;;;;3.19;100.00;100891.47;1732795;83;21489;-75
2022/02/13 08:50:27;;;;;;;14.07;6.90;;;;;;;3.25;100.00;100902.22;1732453;83;21535;-73
2022/02/13 08:52:55;;;;;;;12.40;6.20;;;;;;;3.39;100.00;100910.66;1732531;83;21022;-74
2022/02/13 08:55:22;;;;;;;13.00;5.90;;;;;;;3.46;100.00;100952.55;1732970;83;20982;-75
2022/02/13 08:57:49;;;;;;;16.27;5.97;;;;;;;3.54;100.00;100980.95;1732665;83;21093;-73
2022/02/13 09:00:19;;;;;;;11.83;5.40;;;;;;;3.56;100.00;101034.73;1732981;83;21058;-73
2022/02/13 09:02:46;;;;;;;10.83;5.17;;;;;;;3.44;100.00;101141.64;1733463;83;21033;-74
2022/02/13 09:05:13;;;;;;;8.87;4.60;;;;;;;3.45;100.00;101225.74;1733177;83;21038;-73
2022/02/13 09:07:41;;;;;;;10.87;5.43;;;;;;;3.34;100.00;101344.05;1733491;83;21058;-74
2022/02/13 09:10:10;;;;;;;9.13;4.50;;;;;;;3.29;100.00;101429.50;1744748;81;21012;-74
2022/02/13 09:12:37;;;;;;;8.73;4.60;;;;;;;3.35;100.00;101487.50;1762337;81;21063;-74
2022/02/13 09:15:06;;;;;;;8.50;4.30;;;;;;;3.44;100.00;101534.72;1761389;81;21012;-75
2022/02/13 09:17:32;;;;;;;7.83;5.00;;;;;;;3.53;100.00;101567.12;1761136;81;21043;-75
2022/02/13 09:19:59;;;;;;;8.53;4.60;;;;;;;3.65;100.00;101584.30;1734398;81;20982;-73
2022/02/13 09:22:27;;;;;;;8.40;4.30;;;;;;;3.72;100.00;101611.53;1732523;83;21102;-73
2022/02/13 09:24:53;;;;;;;7.13;4.20;;;;;;;3.79;100.00;101635.20;1732861;83;21053;-74
2022/02/13 09:27:20;;;;;;;9.77;5.10;;;;;;;3.83;100.00;101653.75;1732446;83;21025;-74
2022/02/13 09:29:47;;;;;;;11.43;5.70;;;;;;;3.71;100.00;101686.93;1732656;83;20983;-73
2022/02/13 09:32:15;;;;;;;10.30;5.03;;;;;;;3.71;100.00;101709.67;1732353;83;21090;-73
2022/02/13 09:34:41;;;;;;;10.20;4.80;;;;;;;3.68;100.00;101728.56;1732480;83;21551;-74
2022/02/13 09:37:08;;;;;;;8.67;5.00;;;;;;;3.77;100.00;101736.10;1732787;83;21030;-74
2022/02/13 09:39:35;;;;;;;8.90;4.80;;;;;;;3.86;100.00;101728.03;1732800;83;21022;-74
2022/02/13 09:42:09;;;;;;;9.08;4.40;;;;;;;4.03;100.00;101731.56;1732716;83;21074;-73
2022/02/13 09:44:36;;;;;;;8.73;4.47;;;;;;;4.17;100.00;101732.48;1732863;83;20974;-73
2022/02/13 09:47:03;;;;;;;7.67;4.20;;;;;;;4.25;100.00;101749.47;1732580;83;21371;-74
2022/02/13 09:49:30;;;;;;;8.93;4.83;;;;;;;4.28;100.00;101755.11;1732822;83;20978;-74
2022/02/13 09:51:57;;;;;;;8.00;4.33;;;;;;;4.34;100.00;101761.47;1732553;83;21029;-73
2022/02/13 09:54:24;;;;;;;7.57;4.40;;;;;;;4.18;100.00;101762.83;1732818;83;21010;-74
2022/02/13 09:57:59;;;;;;;9.13;4.27;;;;;;;4.12;100.00;101769.36;1732959;83;21544;-76
2022/02/13 09:59:20;;;;;;;8.80;4.50;;;;;;;4.21;100.00;101769.80;1728097;83;21069;-74
2022/02/13 10:01:47;;;;;;;8.10;4.20;;;;;;;4.27;100.00;101767.64;1732669;83;21042;-74
2022/02/13 10:04:14;;;;;;;6.10;3.80;;;;;;;4.43;100.00;101759.59;1733011;83;21030;-74
2022/02/13 10:06:42;;;;;;;5.97;3.40;;;;;;;4.56;100.00;101767.77;1732446;83;21540;-75
2022/02/13 10:09:09;;;;;;;5.20;2.90;;;;;;;4.51;100.00;101773.86;1733066;83;21038;-75
2022/02/13 10:11:39;;;;;;;3.93;3.30;;;;;;;4.42;100.00;101787.80;1760943;81;21011;-73
2022/02/13 10:16:45;;;;;;;5.23;3.17;;;;;;;4.37;100.00;101790.27;1642418;87;21078;-74
2022/02/13 10:19:15;;;;;;;8.80;3.57;;;;;;;4.31;100.00;101799.98;1643573;87;21516;-73
2022/02/13 10:21:50;;;;;;;7.10;3.70;;;;;;;4.36;100.00;101806.43;1644401;87;21093;-74
2022/02/13 10:24:25;;;;;;;5.43;3.03;;;;;;;4.40;100.00;101797.26;1637506;87;21046;-74
2022/02/13 10:27:11;;;;;;;5.23;3.07;;;;;;;4.42;100.00;101798.03;1619132;89;21175;-74
2022/02/13 10:29:43;;;;;;;7.33;3.77;;;;;;;4.46;100.00;101807.63;1610434;89;21046;-75
2022/02/13 10:32:20;;;;;;;6.13;3.60;;;;;;;4.52;100.00;101804.59;1571062;91;21047;-74
2022/02/13 10:35:12;;;;;;;6.97;3.47;;;;;;;4.59;100.00;101789.02;1571308;90;21122;-74
2022/02/13 10:37:55;;;;;;;6.13;3.03;;;;;;;4.63;100.00;101788.37;1571082;91;21063;-73
2022/02/13 10:40:23;;;;;;;;;;;;;;;4.75;100.00;101795.69;1573575;91;21529;-73
2022/02/13 10:43:07;;;;;;;7.67;4.03;;;;;;;4.72;100.00;101793.18;1571092;91;20130;-76
2022/02/13 10:45:39;;;;;;;6.37;3.70;;;;;;;4.72;100.00;101787.34;1571192;91;21118;-74
2022/02/13 10:48:08;;;;;;;7.37;3.83;;;;;;;4.77;100.00;101788.41;1571450;91;21091;-76
2022/02/13 10:50:36;;;;;;;8.43;4.37;;;;;;;4.72;100.00;101782.46;1571228;91;21074;-76
2022/02/13 10:53:05;;;;;;;8.50;4.20;;;;;;;4.89;100.00;101766.24;1571242;91;21098;-74
2022/02/13 10:55:34;;;;;;;10.90;4.90;;;;;;;5.02;100.00;101763.68;1571277;91;21047;-73
2022/02/13 10:58:01;;;;;;;8.40;4.53;;;;;;;5.09;100.00;101765.52;1571269;91;21071;-74
2022/02/13 11:00:30;;;;;;;8.80;4.50;;;;;;;5.15;100.00;101769.15;1571030;91;21581;-75
2022/02/13 11:03:05;;;;;;;12.03;4.57;;;;;;;5.11;100.00;101764.94;1571114;91;21079;-73
2022/02/13 11:05:38;;;;;;;10.67;4.43;;;;;;;5.19;100.00;101759.98;1571317;91;21636;-73
2022/02/13 11:08:13;;;;;;;9.03;4.03;;;;;;;5.22;100.00;101766.48;1571104;90;21628;-74
2022/02/13 11:10:44;;;;;;;7.67;3.77;;;;;;;5.30;100.00;101759.32;1586041;90;21046;-72
2022/02/13 11:13:12;;;;;;;6.10;3.53;;;;;;;5.36;100.00;101766.12;1568571;92;21146;-74
2022/02/13 11:15:42;;;;;;;8.87;3.93;;;;;;;5.35;100.00;101757.22;1568720;91;21057;-74